sensor_id;sensor_type;location;lat;lon;timestamp;P1;durP1;ratioP1;P2;durP2;ratioP2
40847;SDS011;26570;50.962;5.340;2023-04-25T00:04:07;18.50;;;2.20;;
40847;SDS011;26570;50.962;5.340;2023-04-25T00:06:53;13.73;;;2.70;;
40847;SDS011;26570;50.962;5.340;2023-04-25T00:09:41;19.63;;;2.77;;
40847;SDS011;26570;50.962;5.340;2023-04-25T00:12:26;22.17;;;3.37;;
40847;SDS011;26570;50.962;5.340;2023-04-25T00:15:18;13.17;;;2.13;;
40847;SDS011;26570;50.962;5.340;2023-04-25T00:18:03;18.73;;;2.73;;
40847;SDS011;26570;50.962;5.340;2023-04-25T00:20:50;17.23;;;2.90;;
40847;SDS011;26570;50.962;5.340;2023-04-25T00:23:36;31.63;;;3.07;;
40847;SDS011;26570;50.962;5.340;2023-04-25T00:26:45;19.93;;;2.83;;
40847;SDS011;26570;50.962;5.340;2023-04-25T00:29:31;22.97;;;2.97;;
40847;SDS011;26570;50.962;5.340;2023-04-25T00:32:16;19.37;;;2.40;;
40847;SDS011;26570;50.962;5.340;2023-04-25T00:35:02;15.27;;;2.70;;
40847;SDS011;26570;50.962;5.340;2023-04-25T00:37:47;11.47;;;1.90;;
40847;SDS011;26570;50.962;5.340;2023-04-25T00:40:33;20.50;;;3.57;;
40847;SDS011;26570;50.962;5.340;2023-04-25T00:43:19;15.40;;;2.30;;
40847;SDS011;26570;50.962;5.340;2023-04-25T00:46:05;14.30;;;2.20;;
40847;SDS011;26570;50.962;5.340;2023-04-25T00:48:50;11.77;;;2.57;;
40847;SDS011;26570;50.962;5.340;2023-04-25T00:51:36;19.47;;;3.20;;
40847;SDS011;26570;50.962;5.340;2023-04-25T00:54:22;23.37;;;3.47;;
40847;SDS011;26570;50.962;5.340;2023-04-25T00:57:08;13.67;;;2.93;;
40847;SDS011;26570;50.962;5.340;2023-04-25T00:59:55;18.00;;;2.80;;
40847;SDS011;26570;50.962;5.340;2023-04-25T01:02:40;19.67;;;3.10;;
40847;SDS011;26570;50.962;5.340;2023-04-25T01:05:29;14.30;;;2.40;;
40847;SDS011;26570;50.962;5.340;2023-04-25T01:08:15;21.93;;;2.53;;
40847;SDS011;26570;50.962;5.340;2023-04-25T01:11:01;14.27;;;2.17;;
40847;SDS011;26570;50.962;5.340;2023-04-25T01:13:46;26.33;;;3.10;;
40847;SDS011;26570;50.962;5.340;2023-04-25T01:16:32;20.53;;;2.37;;
40847;SDS011;26570;50.962;5.340;2023-04-25T01:19:18;20.20;;;3.40;;
40847;SDS011;26570;50.962;5.340;2023-04-25T01:22:04;23.30;;;3.27;;
40847;SDS011;26570;50.962;5.340;2023-04-25T01:24:50;21.07;;;3.03;;
40847;SDS011;26570;50.962;5.340;2023-04-25T01:27:58;16.30;;;3.07;;
40847;SDS011;26570;50.962;5.340;2023-04-25T01:30:44;19.43;;;2.87;;
40847;SDS011;26570;50.962;5.340;2023-04-25T01:33:30;18.83;;;2.83;;
40847;SDS011;26570;50.962;5.340;2023-04-25T01:36:16;21.97;;;3.00;;
40847;SDS011;26570;50.962;5.340;2023-04-25T01:39:02;22.27;;;2.90;;
40847;SDS011;26570;50.962;5.340;2023-04-25T01:41:48;20.73;;;2.10;;
40847;SDS011;26570;50.962;5.340;2023-04-25T01:44:34;17.53;;;2.27;;
40847;SDS011;26570;50.962;5.340;2023-04-25T01:47:19;25.67;;;3.40;;
40847;SDS011;26570;50.962;5.340;2023-04-25T01:50:05;23.30;;;2.90;;
40847;SDS011;26570;50.962;5.340;2023-04-25T01:52:52;16.13;;;3.30;;
40847;SDS011;26570;50.962;5.340;2023-04-25T01:55:38;19.77;;;2.83;;
40847;SDS011;26570;50.962;5.340;2023-04-25T01:58:24;16.30;;;2.30;;
40847;SDS011;26570;50.962;5.340;2023-04-25T02:01:10;19.33;;;2.87;;
40847;SDS011;26570;50.962;5.340;2023-04-25T02:03:56;19.67;;;2.67;;
40847;SDS011;26570;50.962;5.340;2023-04-25T02:06:42;22.83;;;2.97;;
40847;SDS011;26570;50.962;5.340;2023-04-25T02:09:28;17.37;;;2.70;;
40847;SDS011;26570;50.962;5.340;2023-04-25T02:12:13;16.10;;;2.80;;
40847;SDS011;26570;50.962;5.340;2023-04-25T02:14:59;23.93;;;2.70;;
40847;SDS011;26570;50.962;5.340;2023-04-25T02:17:45;26.87;;;3.37;;
40847;SDS011;26570;50.962;5.340;2023-04-25T02:20:30;20.13;;;2.53;;
40847;SDS011;26570;50.962;5.340;2023-04-25T02:23:15;19.33;;;2.43;;
40847;SDS011;26570;50.962;5.340;2023-04-25T02:26:03;15.17;;;2.47;;
40847;SDS011;26570;50.962;5.340;2023-04-25T02:28:49;25.90;;;3.67;;
40847;SDS011;26570;50.962;5.340;2023-04-25T02:31:35;17.90;;;2.00;;
40847;SDS011;26570;50.962;5.340;2023-04-25T02:34:43;19.73;;;2.90;;
40847;SDS011;26570;50.962;5.340;2023-04-25T02:37:30;19.80;;;3.03;;
40847;SDS011;26570;50.962;5.340;2023-04-25T02:40:16;18.27;;;2.43;;
40847;SDS011;26570;50.962;5.340;2023-04-25T02:43:23;21.50;;;3.07;;
40847;SDS011;26570;50.962;5.340;2023-04-25T02:46:09;29.07;;;3.80;;
40847;SDS011;26570;50.962;5.340;2023-04-25T02:48:54;25.60;;;3.07;;
40847;SDS011;26570;50.962;5.340;2023-04-25T02:51:40;29.10;;;2.87;;
40847;SDS011;26570;50.962;5.340;2023-04-25T02:54:26;22.90;;;4.40;;
40847;SDS011;26570;50.962;5.340;2023-04-25T02:57:12;18.03;;;3.60;;
40847;SDS011;26570;50.962;5.340;2023-04-25T02:59:57;16.33;;;2.77;;
40847;SDS011;26570;50.962;5.340;2023-04-25T03:02:43;21.07;;;3.30;;
40847;SDS011;26570;50.962;5.340;2023-04-25T03:05:29;18.97;;;2.73;;
40847;SDS011;26570;50.962;5.340;2023-04-25T03:08:15;22.37;;;3.20;;
40847;SDS011;26570;50.962;5.340;2023-04-25T03:11:01;32.17;;;3.90;;
40847;SDS011;26570;50.962;5.340;2023-04-25T03:13:47;19.33;;;2.97;;
40847;SDS011;26570;50.962;5.340;2023-04-25T03:16:32;27.40;;;4.17;;
40847;SDS011;26570;50.962;5.340;2023-04-25T03:19:18;20.60;;;3.57;;
40847;SDS011;26570;50.962;5.340;2023-04-25T03:22:05;22.33;;;3.13;;
40847;SDS011;26570;50.962;5.340;2023-04-25T03:24:50;32.57;;;5.43;;
40847;SDS011;26570;50.962;5.340;2023-04-25T03:27:36;27.40;;;3.90;;
40847;SDS011;26570;50.962;5.340;2023-04-25T03:30:22;20.77;;;3.77;;
40847;SDS011;26570;50.962;5.340;2023-04-25T03:33:07;19.47;;;3.77;;
40847;SDS011;26570;50.962;5.340;2023-04-25T03:35:53;19.43;;;4.27;;
40847;SDS011;26570;50.962;5.340;2023-04-25T03:38:38;25.87;;;5.73;;
40847;SDS011;26570;50.962;5.340;2023-04-25T03:41:25;27.07;;;4.57;;
40847;SDS011;26570;50.962;5.340;2023-04-25T03:44:11;19.30;;;3.80;;
40847;SDS011;26570;50.962;5.340;2023-04-25T03:46:57;21.60;;;3.97;;
40847;SDS011;26570;50.962;5.340;2023-04-25T03:49:42;17.23;;;3.80;;
40847;SDS011;26570;50.962;5.340;2023-04-25T03:52:28;24.80;;;4.30;;
40847;SDS011;26570;50.962;5.340;2023-04-25T03:55:14;23.70;;;4.77;;
40847;SDS011;26570;50.962;5.340;2023-04-25T03:58:00;23.40;;;5.47;;
40847;SDS011;26570;50.962;5.340;2023-04-25T04:00:45;24.77;;;4.00;;
40847;SDS011;26570;50.962;5.340;2023-04-25T04:03:31;28.53;;;5.57;;
40847;SDS011;26570;50.962;5.340;2023-04-25T04:06:16;29.13;;;6.83;;
40847;SDS011;26570;50.962;5.340;2023-04-25T04:09:02;29.00;;;5.53;;
40847;SDS011;26570;50.962;5.340;2023-04-25T04:11:49;23.40;;;5.00;;
40847;SDS011;26570;50.962;5.340;2023-04-25T04:14:34;29.87;;;4.67;;
40847;SDS011;26570;50.962;5.340;2023-04-25T04:17:19;30.93;;;4.73;;
40847;SDS011;26570;50.962;5.340;2023-04-25T04:20:05;24.93;;;4.30;;
40847;SDS011;26570;50.962;5.340;2023-04-25T04:23:16;20.17;;;2.73;;
40847;SDS011;26570;50.962;5.340;2023-04-25T04:26:02;15.43;;;3.20;;
40847;SDS011;26570;50.962;5.340;2023-04-25T04:28:47;17.07;;;2.03;;
40847;SDS011;26570;50.962;5.340;2023-04-25T04:31:32;17.57;;;2.10;;
40847;SDS011;26570;50.962;5.340;2023-04-25T04:34:18;20.73;;;2.07;;
40847;SDS011;26570;50.962;5.340;2023-04-25T04:37:03;17.37;;;2.00;;
40847;SDS011;26570;50.962;5.340;2023-04-25T04:39:51;19.67;;;2.33;;
40847;SDS011;26570;50.962;5.340;2023-04-25T04:42:37;16.43;;;1.50;;
40847;SDS011;26570;50.962;5.340;2023-04-25T04:45:22;12.53;;;1.30;;
40847;SDS011;26570;50.962;5.340;2023-04-25T04:48:09;15.30;;;1.23;;
40847;SDS011;26570;50.962;5.340;2023-04-25T04:50:56;15.70;;;1.40;;
40847;SDS011;26570;50.962;5.340;2023-04-25T04:53:42;15.70;;;1.63;;
40847;SDS011;26570;50.962;5.340;2023-04-25T04:56:28;11.17;;;1.00;;
40847;SDS011;26570;50.962;5.340;2023-04-25T04:59:15;12.07;;;1.30;;
40847;SDS011;26570;50.962;5.340;2023-04-25T05:02:00;16.77;;;1.47;;
40847;SDS011;26570;50.962;5.340;2023-04-25T05:04:47;14.13;;;1.17;;
40847;SDS011;26570;50.962;5.340;2023-04-25T05:07:34;17.20;;;1.77;;
40847;SDS011;26570;50.962;5.340;2023-04-25T05:10:20;17.20;;;1.43;;
40847;SDS011;26570;50.962;5.340;2023-04-25T05:13:06;12.30;;;1.20;;
40847;SDS011;26570;50.962;5.340;2023-04-25T05:15:52;13.23;;;1.67;;
40847;SDS011;26570;50.962;5.340;2023-04-25T05:18:38;12.20;;;1.33;;
40847;SDS011;26570;50.962;5.340;2023-04-25T05:21:24;11.97;;;1.20;;
40847;SDS011;26570;50.962;5.340;2023-04-25T05:24:11;22.17;;;1.53;;
40847;SDS011;26570;50.962;5.340;2023-04-25T05:26:57;16.30;;;1.60;;
40847;SDS011;26570;50.962;5.340;2023-04-25T05:29:42;10.07;;;1.07;;
40847;SDS011;26570;50.962;5.340;2023-04-25T05:32:28;10.27;;;1.63;;
40847;SDS011;26570;50.962;5.340;2023-04-25T05:35:13;11.77;;;1.23;;
40847;SDS011;26570;50.962;5.340;2023-04-25T05:37:59;11.70;;;1.60;;
40847;SDS011;26570;50.962;5.340;2023-04-25T05:40:45;18.10;;;1.47;;
40847;SDS011;26570;50.962;5.340;2023-04-25T05:43:31;12.30;;;1.77;;
40847;SDS011;26570;50.962;5.340;2023-04-25T05:46:16;12.53;;;1.13;;
40847;SDS011;26570;50.962;5.340;2023-04-25T05:49:02;12.97;;;1.30;;
40847;SDS011;26570;50.962;5.340;2023-04-25T05:51:48;11.40;;;1.10;;
40847;SDS011;26570;50.962;5.340;2023-04-25T05:54:33;10.40;;;1.37;;
40847;SDS011;26570;50.962;5.340;2023-04-25T05:57:24;9.77;;;1.10;;
40847;SDS011;26570;50.962;5.340;2023-04-25T06:00:13;11.57;;;1.10;;
40847;SDS011;26570;50.962;5.340;2023-04-25T06:03:00;20.73;;;2.30;;
40847;SDS011;26570;50.962;5.340;2023-04-25T06:06:08;17.03;;;1.80;;
40847;SDS011;26570;50.962;5.340;2023-04-25T06:08:54;13.80;;;1.60;;
40847;SDS011;26570;50.962;5.340;2023-04-25T06:11:40;12.13;;;1.43;;
40847;SDS011;26570;50.962;5.340;2023-04-25T06:14:25;12.67;;;1.47;;
40847;SDS011;26570;50.962;5.340;2023-04-25T06:17:11;14.17;;;1.50;;
40847;SDS011;26570;50.962;5.340;2023-04-25T06:19:56;19.97;;;1.90;;
40847;SDS011;26570;50.962;5.340;2023-04-25T06:22:42;19.37;;;1.83;;
40847;SDS011;26570;50.962;5.340;2023-04-25T06:25:30;22.40;;;2.20;;
40847;SDS011;26570;50.962;5.340;2023-04-25T06:28:40;11.97;;;1.70;;
40847;SDS011;26570;50.962;5.340;2023-04-25T06:31:25;17.60;;;1.80;;
40847;SDS011;26570;50.962;5.340;2023-04-25T06:34:10;15.83;;;1.90;;
40847;SDS011;26570;50.962;5.340;2023-04-25T06:36:55;17.13;;;3.40;;
40847;SDS011;26570;50.962;5.340;2023-04-25T06:39:40;16.13;;;1.87;;
40847;SDS011;26570;50.962;5.340;2023-04-25T06:42:27;13.33;;;2.47;;
40847;SDS011;26570;50.962;5.340;2023-04-25T06:45:15;19.47;;;2.43;;
40847;SDS011;26570;50.962;5.340;2023-04-25T06:48:02;16.57;;;2.47;;
40847;SDS011;26570;50.962;5.340;2023-04-25T06:50:47;19.70;;;2.40;;
40847;SDS011;26570;50.962;5.340;2023-04-25T06:53:32;16.03;;;3.00;;
40847;SDS011;26570;50.962;5.340;2023-04-25T06:56:22;22.23;;;2.33;;
40847;SDS011;26570;50.962;5.340;2023-04-25T06:59:08;18.97;;;3.20;;
40847;SDS011;26570;50.962;5.340;2023-04-25T07:02:20;21.17;;;2.70;;
40847;SDS011;26570;50.962;5.340;2023-04-25T07:05:07;21.00;;;3.47;;
40847;SDS011;26570;50.962;5.340;2023-04-25T07:07:53;25.73;;;2.37;;
40847;SDS011;26570;50.962;5.340;2023-04-25T07:10:40;22.67;;;2.50;;
40847;SDS011;26570;50.962;5.340;2023-04-25T07:13:25;13.47;;;2.53;;
40847;SDS011;26570;50.962;5.340;2023-04-25T07:16:11;18.43;;;2.73;;
40847;SDS011;26570;50.962;5.340;2023-04-25T07:18:57;23.53;;;2.47;;
40847;SDS011;26570;50.962;5.340;2023-04-25T07:22:06;20.47;;;3.17;;
40847;SDS011;26570;50.962;5.340;2023-04-25T07:25:14;20.27;;;3.50;;
40847;SDS011;26570;50.962;5.340;2023-04-25T07:28:00;22.20;;;2.80;;
40847;SDS011;26570;50.962;5.340;2023-04-25T07:30:45;22.27;;;1.97;;
40847;SDS011;26570;50.962;5.340;2023-04-25T07:33:53;18.00;;;1.60;;
40847;SDS011;26570;50.962;5.340;2023-04-25T07:36:39;15.60;;;1.37;;
40847;SDS011;26570;50.962;5.340;2023-04-25T07:39:25;11.83;;;0.80;;
40847;SDS011;26570;50.962;5.340;2023-04-25T07:42:38;8.57;;;0.70;;
40847;SDS011;26570;50.962;5.340;2023-04-25T07:45:24;10.03;;;0.90;;
40847;SDS011;26570;50.962;5.340;2023-04-25T07:48:11;14.20;;;0.87;;
40847;SDS011;26570;50.962;5.340;2023-04-25T07:51:01;10.40;;;1.13;;
40847;SDS011;26570;50.962;5.340;2023-04-25T07:54:13;14.93;;;1.03;;
40847;SDS011;26570;50.962;5.340;2023-04-25T07:57:22;9.50;;;0.70;;
40847;SDS011;26570;50.962;5.340;2023-04-25T08:00:08;9.53;;;0.70;;
40847;SDS011;26570;50.962;5.340;2023-04-25T08:02:59;11.40;;;0.70;;
40847;SDS011;26570;50.962;5.340;2023-04-25T08:05:44;8.87;;;0.70;;
40847;SDS011;26570;50.962;5.340;2023-04-25T08:08:29;8.13;;;0.60;;
40847;SDS011;26570;50.962;5.340;2023-04-25T08:11:14;10.33;;;0.80;;
40847;SDS011;26570;50.962;5.340;2023-04-25T08:13:59;8.00;;;0.70;;
40847;SDS011;26570;50.962;5.340;2023-04-25T08:16:44;11.50;;;0.60;;
40847;SDS011;26570;50.962;5.340;2023-04-25T08:19:30;9.90;;;0.50;;
40847;SDS011;26570;50.962;5.340;2023-04-25T08:22:15;8.33;;;0.60;;
40847;SDS011;26570;50.962;5.340;2023-04-25T08:25:03;5.33;;;0.93;;
40847;SDS011;26570;50.962;5.340;2023-04-25T08:27:48;9.43;;;0.50;;
40847;SDS011;26570;50.962;5.340;2023-04-25T08:30:34;8.23;;;0.50;;
40847;SDS011;26570;50.962;5.340;2023-04-25T08:33:19;7.93;;;0.80;;
40847;SDS011;26570;50.962;5.340;2023-04-25T08:36:29;7.27;;;0.60;;
40847;SDS011;26570;50.962;5.340;2023-04-25T08:39:14;6.87;;;0.60;;
40847;SDS011;26570;50.962;5.340;2023-04-25T08:42:05;9.10;;;0.50;;
40847;SDS011;26570;50.962;5.340;2023-04-25T08:44:55;7.17;;;0.60;;
40847;SDS011;26570;50.962;5.340;2023-04-25T08:47:42;4.50;;;0.50;;
40847;SDS011;26570;50.962;5.340;2023-04-25T08:50:33;10.70;;;0.93;;
40847;SDS011;26570;50.962;5.340;2023-04-25T08:53:30;10.27;;;0.93;;
40847;SDS011;26570;50.962;5.340;2023-04-25T08:56:17;7.20;;;0.60;;
40847;SDS011;26570;50.962;5.340;2023-04-25T08:59:04;12.97;;;1.00;;
40847;SDS011;26570;50.962;5.340;2023-04-25T09:01:52;10.80;;;1.10;;
40847;SDS011;26570;50.962;5.340;2023-04-25T09:04:39;9.37;;;0.90;;
40847;SDS011;26570;50.962;5.340;2023-04-25T09:07:25;11.37;;;1.43;;
40847;SDS011;26570;50.962;5.340;2023-04-25T09:10:11;10.60;;;1.37;;
40847;SDS011;26570;50.962;5.340;2023-04-25T09:13:10;17.40;;;2.07;;
40847;SDS011;26570;50.962;5.340;2023-04-25T09:15:57;9.10;;;1.20;;
40847;SDS011;26570;50.962;5.340;2023-04-25T09:18:43;8.13;;;1.20;;
40847;SDS011;26570;50.962;5.340;2023-04-25T09:21:31;10.20;;;0.80;;
40847;SDS011;26570;50.962;5.340;2023-04-25T09:24:35;6.27;;;0.80;;
40847;SDS011;26570;50.962;5.340;2023-04-25T09:30:10;5.43;;;0.53;;
40847;SDS011;26570;50.962;5.340;2023-04-25T09:33:06;5.97;;;0.60;;
40847;SDS011;26570;50.962;5.340;2023-04-25T09:35:53;7.67;;;0.50;;
40847;SDS011;26570;50.962;5.340;2023-04-25T09:38:45;11.63;;;0.50;;
40847;SDS011;26570;50.962;5.340;2023-04-25T09:41:31;7.80;;;0.50;;
40847;SDS011;26570;50.962;5.340;2023-04-25T09:44:45;10.30;;;0.50;;
40847;SDS011;26570;50.962;5.340;2023-04-25T09:47:32;8.27;;;0.50;;
40847;SDS011;26570;50.962;5.340;2023-04-25T09:50:23;5.67;;;0.50;;
40847;SDS011;26570;50.962;5.340;2023-04-25T09:53:10;6.63;;;0.50;;
40847;SDS011;26570;50.962;5.340;2023-04-25T09:56:19;4.30;;;0.33;;
40847;SDS011;26570;50.962;5.340;2023-04-25T09:59:07;3.37;;;0.30;;
40847;SDS011;26570;50.962;5.340;2023-04-25T10:01:53;4.63;;;0.40;;
40847;SDS011;26570;50.962;5.340;2023-04-25T10:04:40;5.07;;;0.40;;
40847;SDS011;26570;50.962;5.340;2023-04-25T10:07:29;5.43;;;0.40;;
40847;SDS011;26570;50.962;5.340;2023-04-25T10:10:15;5.63;;;0.50;;
40847;SDS011;26570;50.962;5.340;2023-04-25T10:13:03;4.73;;;0.43;;
40847;SDS011;26570;50.962;5.340;2023-04-25T10:15:50;3.33;;;0.40;;
40847;SDS011;26570;50.962;5.340;2023-04-25T10:19:00;5.00;;;0.50;;
40847;SDS011;26570;50.962;5.340;2023-04-25T10:21:51;6.20;;;0.50;;
40847;SDS011;26570;50.962;5.340;2023-04-25T10:24:40;8.32;;;0.50;;
40847;SDS011;26570;50.962;5.340;2023-04-25T10:27:28;6.87;;;0.50;;
40847;SDS011;26570;50.962;5.340;2023-04-25T10:30:15;10.53;;;0.50;;
40847;SDS011;26570;50.962;5.340;2023-04-25T10:33:01;8.20;;;0.70;;
40847;SDS011;26570;50.962;5.340;2023-04-25T10:35:46;5.47;;;0.60;;
40847;SDS011;26570;50.962;5.340;2023-04-25T10:38:32;7.43;;;0.60;;
40847;SDS011;26570;50.962;5.340;2023-04-25T10:41:18;5.17;;;0.50;;
40847;SDS011;26570;50.962;5.340;2023-04-25T10:44:05;5.37;;;0.40;;
40847;SDS011;26570;50.962;5.340;2023-04-25T10:46:51;3.17;;;0.27;;
40847;SDS011;26570;50.962;5.340;2023-04-25T10:49:42;4.93;;;0.87;;
40847;SDS011;26570;50.962;5.340;2023-04-25T10:52:30;5.07;;;0.30;;
40847;SDS011;26570;50.962;5.340;2023-04-25T10:55:49;4.17;;;0.30;;
40847;SDS011;26570;50.962;5.340;2023-04-25T10:58:36;5.43;;;0.30;;
40847;SDS011;26570;50.962;5.340;2023-04-25T11:01:26;7.40;;;0.40;;
40847;SDS011;26570;50.962;5.340;2023-04-25T11:04:32;1.87;;;0.27;;
40847;SDS011;26570;50.962;5.340;2023-04-25T11:07:29;6.23;;;0.30;;
40847;SDS011;26570;50.962;5.340;2023-04-25T11:10:35;3.17;;;0.30;;
40847;SDS011;26570;50.962;5.340;2023-04-25T11:13:29;4.63;;;0.23;;
40847;SDS011;26570;50.962;5.340;2023-04-25T11:16:14;1.73;;;0.20;;
40847;SDS011;26570;50.962;5.340;2023-04-25T11:19:23;4.57;;;0.30;;
40847;SDS011;26570;50.962;5.340;2023-04-25T11:22:09;2.20;;;0.20;;
40847;SDS011;26570;50.962;5.340;2023-04-25T11:24:55;2.67;;;0.30;;
40847;SDS011;26570;50.962;5.340;2023-04-25T11:27:54;2.17;;;0.20;;
40847;SDS011;26570;50.962;5.340;2023-04-25T11:30:47;5.57;;;0.30;;
40847;SDS011;26570;50.962;5.340;2023-04-25T11:33:37;5.25;;;0.35;;
40847;SDS011;26570;50.962;5.340;2023-04-25T11:36:25;4.43;;;0.30;;
40847;SDS011;26570;50.962;5.340;2023-04-25T11:39:11;4.60;;;0.30;;
40847;SDS011;26570;50.962;5.340;2023-04-25T11:42:00;5.13;;;0.30;;
40847;SDS011;26570;50.962;5.340;2023-04-25T11:44:48;2.27;;;0.30;;
40847;SDS011;26570;50.962;5.340;2023-04-25T11:47:35;7.07;;;0.40;;
40847;SDS011;26570;50.962;5.340;2023-04-25T11:50:21;4.10;;;0.30;;
40847;SDS011;26570;50.962;5.340;2023-04-25T11:53:06;8.50;;;0.50;;
40847;SDS011;26570;50.962;5.340;2023-04-25T11:56:15;3.23;;;0.30;;
40847;SDS011;26570;50.962;5.340;2023-04-25T11:59:07;2.40;;;0.37;;
40847;SDS011;26570;50.962;5.340;2023-04-25T12:01:53;4.30;;;0.30;;
40847;SDS011;26570;50.962;5.340;2023-04-25T12:04:40;3.63;;;0.30;;
40847;SDS011;26570;50.962;5.340;2023-04-25T12:07:30;4.77;;;0.67;;
40847;SDS011;26570;50.962;5.340;2023-04-25T12:10:16;2.33;;;0.20;;
40847;SDS011;26570;50.962;5.340;2023-04-25T12:13:17;2.17;;;0.20;;
40847;SDS011;26570;50.962;5.340;2023-04-25T12:16:41;4.17;;;0.30;;
40847;SDS011;26570;50.962;5.340;2023-04-25T12:19:34;3.93;;;0.40;;
40847;SDS011;26570;50.962;5.340;2023-04-25T12:22:24;3.93;;;0.53;;
40847;SDS011;26570;50.962;5.340;2023-04-25T12:28:31;4.57;;;0.40;;
40847;SDS011;26570;50.962;5.340;2023-04-25T12:31:17;7.23;;;0.50;;
40847;SDS011;26570;50.962;5.340;2023-04-25T12:34:03;4.93;;;0.50;;
40847;SDS011;26570;50.962;5.340;2023-04-25T12:36:49;2.23;;;0.40;;
40847;SDS011;26570;50.962;5.340;2023-04-25T12:39:35;1.53;;;0.40;;
40847;SDS011;26570;50.962;5.340;2023-04-25T12:42:21;2.30;;;0.40;;
40847;SDS011;26570;50.962;5.340;2023-04-25T12:45:07;6.90;;;0.43;;
40847;SDS011;26570;50.962;5.340;2023-04-25T12:47:54;4.17;;;0.30;;
40847;SDS011;26570;50.962;5.340;2023-04-25T12:50:40;2.80;;;0.30;;
40847;SDS011;26570;50.962;5.340;2023-04-25T12:53:26;2.97;;;0.33;;
40847;SDS011;26570;50.962;5.340;2023-04-25T12:56:34;1.80;;;0.30;;
40847;SDS011;26570;50.962;5.340;2023-04-25T12:59:20;4.70;;;0.30;;
40847;SDS011;26570;50.962;5.340;2023-04-25T13:02:06;2.80;;;0.30;;
40847;SDS011;26570;50.962;5.340;2023-04-25T13:04:52;8.37;;;0.40;;
40847;SDS011;26570;50.962;5.340;2023-04-25T13:07:38;3.30;;;0.30;;
40847;SDS011;26570;50.962;5.340;2023-04-25T13:10:25;3.93;;;0.30;;
40847;SDS011;26570;50.962;5.340;2023-04-25T13:13:11;3.90;;;0.60;;
40847;SDS011;26570;50.962;5.340;2023-04-25T13:15:58;4.13;;;0.30;;
40847;SDS011;26570;50.962;5.340;2023-04-25T13:18:44;4.63;;;0.40;;
40847;SDS011;26570;50.962;5.340;2023-04-25T13:21:30;3.27;;;0.40;;
40847;SDS011;26570;50.962;5.340;2023-04-25T13:25:45;4.50;;;0.40;;
40847;SDS011;26570;50.962;5.340;2023-04-25T13:28:31;3.72;;;0.40;;
40847;SDS011;26570;50.962;5.340;2023-04-25T13:31:17;5.87;;;0.40;;
40847;SDS011;26570;50.962;5.340;2023-04-25T13:34:25;2.77;;;0.30;;
40847;SDS011;26570;50.962;5.340;2023-04-25T13:37:11;4.27;;;0.30;;
40847;SDS011;26570;50.962;5.340;2023-04-25T13:39:57;3.73;;;0.40;;
40847;SDS011;26570;50.962;5.340;2023-04-25T13:42:43;4.53;;;0.40;;
40847;SDS011;26570;50.962;5.340;2023-04-25T13:45:29;4.97;;;0.40;;
40847;SDS011;26570;50.962;5.340;2023-04-25T13:48:15;3.90;;;0.43;;
40847;SDS011;26570;50.962;5.340;2023-04-25T13:51:02;2.50;;;0.30;;
40847;SDS011;26570;50.962;5.340;2023-04-25T13:53:48;2.73;;;0.33;;
40847;SDS011;26570;50.962;5.340;2023-04-25T13:56:34;5.43;;;0.40;;
40847;SDS011;26570;50.962;5.340;2023-04-25T13:59:20;1.47;;;0.30;;
40847;SDS011;26570;50.962;5.340;2023-04-25T14:02:06;2.77;;;0.20;;
40847;SDS011;26570;50.962;5.340;2023-04-25T14:04:55;2.10;;;0.30;;
40847;SDS011;26570;50.962;5.340;2023-04-25T14:08:04;2.33;;;0.20;;
40847;SDS011;26570;50.962;5.340;2023-04-25T14:10:50;3.97;;;0.50;;
40847;SDS011;26570;50.962;5.340;2023-04-25T14:13:36;4.10;;;0.30;;
40847;SDS011;26570;50.962;5.340;2023-04-25T14:16:22;3.83;;;0.20;;
40847;SDS011;26570;50.962;5.340;2023-04-25T14:19:08;3.97;;;0.30;;
40847;SDS011;26570;50.962;5.340;2023-04-25T14:21:54;3.83;;;0.30;;
40847;SDS011;26570;50.962;5.340;2023-04-25T14:24:40;4.43;;;0.27;;
40847;SDS011;26570;50.962;5.340;2023-04-25T14:27:26;5.83;;;0.30;;
40847;SDS011;26570;50.962;5.340;2023-04-25T14:30:12;3.47;;;0.20;;
40847;SDS011;26570;50.962;5.340;2023-04-25T14:32:58;4.17;;;0.30;;
40847;SDS011;26570;50.962;5.340;2023-04-25T14:35:44;2.57;;;0.30;;
40847;SDS011;26570;50.962;5.340;2023-04-25T14:38:31;4.43;;;0.30;;
40847;SDS011;26570;50.962;5.340;2023-04-25T14:41:16;4.73;;;0.30;;
40847;SDS011;26570;50.962;5.340;2023-04-25T14:44:02;5.67;;;0.30;;
40847;SDS011;26570;50.962;5.340;2023-04-25T14:46:48;5.20;;;0.30;;
40847;SDS011;26570;50.962;5.340;2023-04-25T14:49:57;1.93;;;0.30;;
40847;SDS011;26570;50.962;5.340;2023-04-25T14:52:43;3.20;;;0.30;;
40847;SDS011;26570;50.962;5.340;2023-04-25T14:55:29;1.90;;;0.30;;
40847;SDS011;26570;50.962;5.340;2023-04-25T14:58:15;3.63;;;0.23;;
40847;SDS011;26570;50.962;5.340;2023-04-25T15:01:01;5.83;;;0.30;;
40847;SDS011;26570;50.962;5.340;2023-04-25T15:03:47;2.57;;;0.30;;
40847;SDS011;26570;50.962;5.340;2023-04-25T15:06:33;2.23;;;0.20;;
40847;SDS011;26570;50.962;5.340;2023-04-25T15:09:18;2.90;;;0.30;;
40847;SDS011;26570;50.962;5.340;2023-04-25T15:12:05;3.17;;;0.30;;
40847;SDS011;26570;50.962;5.340;2023-04-25T15:14:51;4.50;;;0.30;;
40847;SDS011;26570;50.962;5.340;2023-04-25T15:17:43;4.23;;;0.30;;
40847;SDS011;26570;50.962;5.340;2023-04-25T15:20:29;5.40;;;0.30;;
40847;SDS011;26570;50.962;5.340;2023-04-25T15:23:15;4.17;;;0.30;;
40847;SDS011;26570;50.962;5.340;2023-04-25T15:26:01;4.33;;;0.40;;
40847;SDS011;26570;50.962;5.340;2023-04-25T15:28:47;8.03;;;0.40;;
40847;SDS011;26570;50.962;5.340;2023-04-25T15:31:33;3.97;;;0.33;;
40847;SDS011;26570;50.962;5.340;2023-04-25T15:34:41;3.97;;;0.33;;
40847;SDS011;26570;50.962;5.340;2023-04-25T15:37:26;1.83;;;0.30;;
40847;SDS011;26570;50.962;5.340;2023-04-25T15:40:15;3.03;;;0.30;;
40847;SDS011;26570;50.962;5.340;2023-04-25T15:43:01;3.80;;;0.37;;
40847;SDS011;26570;50.962;5.340;2023-04-25T15:45:47;2.13;;;0.30;;
40847;SDS011;26570;50.962;5.340;2023-04-25T15:48:33;3.77;;;0.27;;
40847;SDS011;26570;50.962;5.340;2023-04-25T15:51:19;7.07;;;0.40;;
40847;SDS011;26570;50.962;5.340;2023-04-25T15:54:05;7.13;;;0.40;;
40847;SDS011;26570;50.962;5.340;2023-04-25T15:56:51;3.90;;;0.30;;
40847;SDS011;26570;50.962;5.340;2023-04-25T15:59:36;7.33;;;0.37;;
40847;SDS011;26570;50.962;5.340;2023-04-25T16:02:22;4.00;;;0.30;;
40847;SDS011;26570;50.962;5.340;2023-04-25T16:05:08;3.13;;;0.30;;
40847;SDS011;26570;50.962;5.340;2023-04-25T16:07:54;4.53;;;0.30;;
40847;SDS011;26570;50.962;5.340;2023-04-25T16:10:39;4.30;;;0.30;;
40847;SDS011;26570;50.962;5.340;2023-04-25T16:13:25;5.07;;;0.30;;
40847;SDS011;26570;50.962;5.340;2023-04-25T16:16:10;5.47;;;0.40;;
40847;SDS011;26570;50.962;5.340;2023-04-25T16:18:57;4.23;;;0.30;;
40847;SDS011;26570;50.962;5.340;2023-04-25T16:22:05;3.50;;;0.30;;
40847;SDS011;26570;50.962;5.340;2023-04-25T16:24:53;2.93;;;0.30;;
40847;SDS011;26570;50.962;5.340;2023-04-25T16:27:38;2.00;;;0.50;;
40847;SDS011;26570;50.962;5.340;2023-04-25T16:30:24;4.10;;;0.23;;
40847;SDS011;26570;50.962;5.340;2023-04-25T16:33:09;3.10;;;0.30;;
40847;SDS011;26570;50.962;5.340;2023-04-25T16:35:55;2.20;;;0.23;;
40847;SDS011;26570;50.962;5.340;2023-04-25T16:38:40;4.53;;;0.20;;
40847;SDS011;26570;50.962;5.340;2023-04-25T16:41:26;3.67;;;0.40;;
40847;SDS011;26570;50.962;5.340;2023-04-25T16:44:11;1.93;;;0.20;;
40847;SDS011;26570;50.962;5.340;2023-04-25T16:46:57;2.67;;;0.20;;
40847;SDS011;26570;50.962;5.340;2023-04-25T16:49:43;2.73;;;0.30;;
40847;SDS011;26570;50.962;5.340;2023-04-25T16:52:51;6.27;;;0.50;;
40847;SDS011;26570;50.962;5.340;2023-04-25T16:55:37;1.67;;;0.20;;
40847;SDS011;26570;50.962;5.340;2023-04-25T16:58:22;4.70;;;0.30;;